sensor_id;sensor_type;location;lat;lon;timestamp;P1;durP1;ratioP1;P2;durP2;ratioP2
50086;SDS011;35967;50.718;7.050;2022-10-16T00:02:30;2.20;;;0.60;;
50086;SDS011;35967;50.718;7.050;2022-10-16T00:12:34;0.67;;;0.40;;
50086;SDS011;35967;50.718;7.050;2022-10-16T00:22:37;1.50;;;0.40;;
50086;SDS011;35967;50.718;7.050;2022-10-16T00:32:42;3.33;;;0.40;;
50086;SDS011;35967;50.718;7.050;2022-10-16T00:42:45;3.43;;;0.40;;
50086;SDS011;35967;50.718;7.050;2022-10-16T00:52:50;0.90;;;0.40;;
50086;SDS011;35967;50.718;7.050;2022-10-16T01:02:55;1.40;;;0.40;;
50086;SDS011;35967;50.718;7.050;2022-10-16T01:13:02;2.63;;;0.77;;
50086;SDS011;35967;50.718;7.050;2022-10-16T01:23:10;2.10;;;0.40;;
50086;SDS011;35967;50.718;7.050;2022-10-16T01:33:26;2.83;;;0.50;;
50086;SDS011;35967;50.718;7.050;2022-10-16T01:43:33;5.07;;;0.40;;
50086;SDS011;35967;50.718;7.050;2022-10-16T01:53:41;6.90;;;0.40;;
50086;SDS011;35967;50.718;7.050;2022-10-16T02:03:50;1.30;;;0.50;;
50086;SDS011;35967;50.718;7.050;2022-10-16T02:14:00;2.20;;;0.50;;
50086;SDS011;35967;50.718;7.050;2022-10-16T02:24:07;3.53;;;0.23;;
50086;SDS011;35967;50.718;7.050;2022-10-16T02:34:17;1.87;;;0.27;;
50086;SDS011;35967;50.718;7.050;2022-10-16T02:44:23;1.07;;;0.50;;
50086;SDS011;35967;50.718;7.050;2022-10-16T02:54:27;2.00;;;0.40;;
50086;SDS011;35967;50.718;7.050;2022-10-16T03:04:31;1.43;;;0.33;;
50086;SDS011;35967;50.718;7.050;2022-10-16T03:14:35;3.97;;;0.40;;
50086;SDS011;35967;50.718;7.050;2022-10-16T03:24:38;3.23;;;0.43;;
50086;SDS011;35967;50.718;7.050;2022-10-16T03:34:42;0.90;;;0.20;;
50086;SDS011;35967;50.718;7.050;2022-10-16T03:44:45;2.37;;;0.40;;
50086;SDS011;35967;50.718;7.050;2022-10-16T03:54:50;2.23;;;0.20;;
50086;SDS011;35967;50.718;7.050;2022-10-16T04:04:53;1.03;;;0.30;;
50086;SDS011;35967;50.718;7.050;2022-10-16T04:14:57;3.03;;;0.40;;
50086;SDS011;35967;50.718;7.050;2022-10-16T04:25:00;0.87;;;0.30;;
50086;SDS011;35967;50.718;7.050;2022-10-16T04:35:04;2.53;;;0.27;;
50086;SDS011;35967;50.718;7.050;2022-10-16T04:45:08;1.77;;;0.40;;
50086;SDS011;35967;50.718;7.050;2022-10-16T04:55:18;3.63;;;0.30;;
50086;SDS011;35967;50.718;7.050;2022-10-16T05:05:21;1.90;;;0.27;;
50086;SDS011;35967;50.718;7.050;2022-10-16T05:15:26;5.03;;;0.30;;
50086;SDS011;35967;50.718;7.050;2022-10-16T05:25:28;3.73;;;0.33;;
50086;SDS011;35967;50.718;7.050;2022-10-16T05:35:33;1.97;;;0.40;;
50086;SDS011;35967;50.718;7.050;2022-10-16T05:45:36;1.70;;;0.30;;
50086;SDS011;35967;50.718;7.050;2022-10-16T05:55:40;1.33;;;0.50;;
50086;SDS011;35967;50.718;7.050;2022-10-16T06:05:43;1.20;;;0.60;;
50086;SDS011;35967;50.718;7.050;2022-10-16T06:15:47;1.77;;;0.50;;
50086;SDS011;35967;50.718;7.050;2022-10-16T06:25:50;7.60;;;0.50;;
50086;SDS011;35967;50.718;7.050;2022-10-16T06:35:59;1.30;;;0.50;;
50086;SDS011;35967;50.718;7.050;2022-10-16T06:46:03;1.10;;;0.50;;
50086;SDS011;35967;50.718;7.050;2022-10-16T06:56:10;2.60;;;0.97;;
50086;SDS011;35967;50.718;7.050;2022-10-16T07:06:16;3.07;;;0.50;;
50086;SDS011;35967;50.718;7.050;2022-10-16T07:16:22;1.20;;;0.60;;
50086;SDS011;35967;50.718;7.050;2022-10-16T07:26:26;2.63;;;0.70;;
50086;SDS011;35967;50.718;7.050;2022-10-16T07:36:32;1.33;;;0.57;;
50086;SDS011;35967;50.718;7.050;2022-10-16T07:46:35;2.57;;;0.60;;
50086;SDS011;35967;50.718;7.050;2022-10-16T07:56:40;5.33;;;0.50;;
50086;SDS011;35967;50.718;7.050;2022-10-16T08:06:44;2.10;;;0.40;;
50086;SDS011;35967;50.718;7.050;2022-10-16T08:16:48;5.10;;;0.40;;
50086;SDS011;35967;50.718;7.050;2022-10-16T08:26:53;3.77;;;0.60;;
50086;SDS011;35967;50.718;7.050;2022-10-16T08:36:57;1.10;;;0.30;;
50086;SDS011;35967;50.718;7.050;2022-10-16T08:47:02;2.87;;;0.30;;
50086;SDS011;35967;50.718;7.050;2022-10-16T08:57:13;4.20;;;0.40;;
50086;SDS011;35967;50.718;7.050;2022-10-16T09:07:25;2.20;;;0.30;;
50086;SDS011;35967;50.718;7.050;2022-10-16T09:17:39;1.60;;;0.33;;
50086;SDS011;35967;50.718;7.050;2022-10-16T09:27:51;3.23;;;0.30;;
50086;SDS011;35967;50.718;7.050;2022-10-16T09:37:57;0.63;;;0.30;;
50086;SDS011;35967;50.718;7.050;2022-10-16T09:48:01;1.17;;;0.20;;
50086;SDS011;35967;50.718;7.050;2022-10-16T09:58:15;0.50;;;0.20;;
50086;SDS011;35967;50.718;7.050;2022-10-16T10:08:18;2.77;;;0.30;;
50086;SDS011;35967;50.718;7.050;2022-10-16T10:18:26;0.63;;;0.10;;
50086;SDS011;35967;50.718;7.050;2022-10-16T10:28:39;3.03;;;0.20;;
50086;SDS011;35967;50.718;7.050;2022-10-16T10:38:53;0.98;;;0.20;;
50086;SDS011;35967;50.718;7.050;2022-10-16T10:49:11;2.60;;;0.20;;
50086;SDS011;35967;50.718;7.050;2022-10-16T10:59:30;0.80;;;0.10;;
50086;SDS011;35967;50.718;7.050;2022-10-16T11:09:42;1.63;;;0.20;;
50086;SDS011;35967;50.718;7.050;2022-10-16T11:19:51;1.08;;;0.10;;
50086;SDS011;35967;50.718;7.050;2022-10-16T11:29:59;0.98;;;0.22;;
50086;SDS011;35967;50.718;7.050;2022-10-16T11:40:14;1.25;;;0.20;;
50086;SDS011;35967;50.718;7.050;2022-10-16T11:50:25;0.93;;;0.10;;
50086;SDS011;35967;50.718;7.050;2022-10-16T12:00:34;4.28;;;0.40;;
50086;SDS011;35967;50.718;7.050;2022-10-16T12:10:43;0.77;;;0.20;;
50086;SDS011;35967;50.718;7.050;2022-10-16T12:20:55;3.17;;;0.30;;
50086;SDS011;35967;50.718;7.050;2022-10-16T12:31:01;3.90;;;0.10;;
50086;SDS011;35967;50.718;7.050;2022-10-16T12:41:08;0.50;;;0.10;;
50086;SDS011;35967;50.718;7.050;2022-10-16T12:51:19;1.37;;;0.20;;
50086;SDS011;35967;50.718;7.050;2022-10-16T13:01:39;4.33;;;0.20;;
50086;SDS011;35967;50.718;7.050;2022-10-16T13:11:52;0.73;;;0.10;;
50086;SDS011;35967;50.718;7.050;2022-10-16T13:22:08;1.73;;;0.20;;
50086;SDS011;35967;50.718;7.050;2022-10-16T13:32:19;5.15;;;1.17;;
50086;SDS011;35967;50.718;7.050;2022-10-16T13:42:24;0.45;;;0.20;;
50086;SDS011;35967;50.718;7.050;2022-10-16T13:52:30;2.08;;;0.10;;
50086;SDS011;35967;50.718;7.050;2022-10-16T14:02:35;0.40;;;0.20;;
50086;SDS011;35967;50.718;7.050;2022-10-16T14:12:42;1.67;;;0.20;;
50086;SDS011;35967;50.718;7.050;2022-10-16T14:22:46;0.32;;;0.10;;
50086;SDS011;35967;50.718;7.050;2022-10-16T14:32:53;0.97;;;0.13;;
50086;SDS011;35967;50.718;7.050;2022-10-16T14:42:59;0.67;;;0.20;;
50086;SDS011;35967;50.718;7.050;2022-10-16T14:53:07;0.73;;;0.10;;
50086;SDS011;35967;50.718;7.050;2022-10-16T15:03:14;0.33;;;0.10;;
50086;SDS011;35967;50.718;7.050;2022-10-16T15:13:18;1.03;;;0.37;;
50086;SDS011;35967;50.718;7.050;2022-10-16T15:23:22;0.80;;;0.20;;
50086;SDS011;35967;50.718;7.050;2022-10-16T15:33:27;0.43;;;0.10;;
50086;SDS011;35967;50.718;7.050;2022-10-16T15:43:41;0.77;;;0.10;;
50086;SDS011;35967;50.718;7.050;2022-10-16T15:53:46;2.27;;;0.20;;
50086;SDS011;35967;50.718;7.050;2022-10-16T16:03:53;1.47;;;0.30;;
50086;SDS011;35967;50.718;7.050;2022-10-16T16:13:57;3.58;;;0.40;;
50086;SDS011;35967;50.718;7.050;2022-10-16T16:24:02;2.57;;;0.63;;
50086;SDS011;35967;50.718;7.050;2022-10-16T16:34:10;2.37;;;0.60;;
50086;SDS011;35967;50.718;7.050;2022-10-16T16:44:14;4.33;;;0.60;;
50086;SDS011;35967;50.718;7.050;2022-10-16T16:54:18;1.70;;;0.50;;
50086;SDS011;35967;50.718;7.050;2022-10-16T17:04:22;4.03;;;0.70;;
50086;SDS011;35967;50.718;7.050;2022-10-16T17:14:26;1.00;;;0.47;;
50086;SDS011;35967;50.718;7.050;2022-10-16T17:24:30;4.40;;;0.70;;
50086;SDS011;35967;50.718;7.050;2022-10-16T17:34:33;1.47;;;0.50;;
50086;SDS011;35967;50.718;7.050;2022-10-16T17:44:38;1.40;;;0.50;;
50086;SDS011;35967;50.718;7.050;2022-10-16T17:54:41;4.33;;;0.70;;
50086;SDS011;35967;50.718;7.050;2022-10-16T18:04:46;2.10;;;0.70;;
50086;SDS011;35967;50.718;7.050;2022-10-16T18:14:49;1.53;;;0.70;;
50086;SDS011;35967;50.718;7.050;2022-10-16T18:24:55;2.83;;;1.30;;
50086;SDS011;35967;50.718;7.050;2022-10-16T18:34:58;3.73;;;1.20;;
50086;SDS011;35967;50.718;7.050;2022-10-16T18:45:03;1.33;;;0.73;;
50086;SDS011;35967;50.718;7.050;2022-10-16T18:55:08;0.80;;;0.53;;
50086;SDS011;35967;50.718;7.050;2022-10-16T19:05:12;2.30;;;0.70;;
50086;SDS011;35967;50.718;7.050;2022-10-16T19:15:16;3.00;;;0.73;;
50086;SDS011;35967;50.718;7.050;2022-10-16T19:25:21;3.13;;;1.00;;
50086;SDS011;35967;50.718;7.050;2022-10-16T19:35:24;4.43;;;1.63;;
50086;SDS011;35967;50.718;7.050;2022-10-16T19:45:28;4.53;;;1.80;;
50086;SDS011;35967;50.718;7.050;2022-10-16T19:55:31;4.17;;;1.23;;
50086;SDS011;35967;50.718;7.050;2022-10-16T20:05:36;4.43;;;1.40;;
50086;SDS011;35967;50.718;7.050;2022-10-16T20:15:39;3.77;;;1.20;;
50086;SDS011;35967;50.718;7.050;2022-10-16T20:25:46;2.80;;;1.70;;
50086;SDS011;35967;50.718;7.050;2022-10-16T20:35:49;7.33;;;1.93;;
50086;SDS011;35967;50.718;7.050;2022-10-16T20:46:01;6.30;;;2.60;;
50086;SDS011;35967;50.718;7.050;2022-10-16T20:56:06;5.70;;;1.60;;
50086;SDS011;35967;50.718;7.050;2022-10-16T21:06:11;5.83;;;2.17;;
50086;SDS011;35967;50.718;7.050;2022-10-16T21:16:14;4.27;;;1.60;;
50086;SDS011;35967;50.718;7.050;2022-10-16T21:26:19;8.47;;;2.80;;
50086;SDS011;35967;50.718;7.050;2022-10-16T21:36:27;5.10;;;3.10;;
50086;SDS011;35967;50.718;7.050;2022-10-16T21:46:33;8.50;;;4.00;;
50086;SDS011;35967;50.718;7.050;2022-10-16T21:56:37;11.17;;;4.20;;
50086;SDS011;35967;50.718;7.050;2022-10-16T22:06:42;5.53;;;3.57;;
50086;SDS011;35967;50.718;7.050;2022-10-16T22:16:47;5.57;;;3.90;;
50086;SDS011;35967;50.718;7.050;2022-10-16T22:26:52;6.87;;;2.87;;
50086;SDS011;35967;50.718;7.050;2022-10-16T22:36:55;6.43;;;3.30;;
50086;SDS011;35967;50.718;7.050;2022-10-16T22:46:59;5.10;;;3.13;;
50086;SDS011;35967;50.718;7.050;2022-10-16T22:57:02;5.60;;;3.20;;
50086;SDS011;35967;50.718;7.050;2022-10-16T23:07:06;4.90;;;2.80;;
50086;SDS011;35967;50.718;7.050;2022-10-16T23:17:09;6.17;;;2.70;;
50086;SDS011;35967;50.718;7.050;2022-10-16T23:27:13;5.30;;;2.37;;
50086;SDS011;35967;50.718;7.050;2022-10-16T23:37:16;5.03;;;2.00;;
50086;SDS011;35967;50.718;7.050;2022-10-16T23:47:21;5.50;;;2.83;;
50086;SDS011;35967;50.718;7.050;2022-10-16T23:57:24;5.57;;;2.10;;
